Airport View

Enter AWOS ICAO identifier for current METAR.

ex. KFNL

KFMH 192345Z 00000KT 10SM CLR 09/09 A3034

20 Oct 2020 00:41

Other Area AWOS: KHYA - KMVY - KPYM - KEWB

TAF KFMH 192322Z 2000/2024 VRB03KT P6SM SCT150 FM201100 00000KT P6SM BKN060 FM201800 20008KT P6SM SCT008 BKN024 FM202200 20007KT P6SM BKN006